Time;durP1;ratioP1;P1;durP2;ratioP2;P2;SDS_P1;SDS_P2;PMS_P1;PMS_P2;Temp;Humidity;BMP_temperature;BMP_pressure;BME280_temperature;BME280_humidity;BME280_pressure;Samples;Min_cycle;Max_cycle;Signal;HPM_P1;HPM_P2
2022/05/10 00:02:01;;;;;;;;;;;17.80;47.70;;;;;;5027485;28;86882;-47
2022/05/10 00:04:27;;;;;;;;;;;17.80;47.70;;;;;;5027596;28;87077;-47
2022/05/10 00:06:53;;;;;;;;;;;17.80;47.70;;;;;;5026892;28;87650;-47
2022/05/10 00:09:20;;;;;;;;;;;17.80;47.80;;;;;;5027257;28;87006;-47
2022/05/10 00:11:46;;;;;;;;;;;17.70;47.80;;;;;;5027295;28;87110;-47
2022/05/10 00:14:12;;;;;;;;;;;17.70;47.80;;;;;;5027042;28;87362;-47
2022/05/10 00:16:41;;;;;;;;;;;17.70;47.80;;;;;;5030583;28;86172;-47
2022/05/10 00:19:08;;;;;;;;;;;17.70;47.80;;;;;;5027052;28;86846;-47
2022/05/10 00:21:34;;;;;;;;;;;17.70;47.80;;;;;;5027067;28;86886;-47
2022/05/10 00:24:00;;;;;;;;;;;17.60;47.80;;;;;;5026693;28;87866;-47
2022/05/10 00:26:25;;;;;;;;;;;17.70;47.80;;;;;;5026787;28;86918;-47
2022/05/10 00:28:51;;;;;;;;;;;17.60;47.80;;;;;;5026965;28;86886;-47
2022/05/10 00:31:17;;;;;;;;;;;17.60;47.80;;;;;;5026884;28;88117;-47
2022/05/10 00:33:43;;;;;;;;;;;17.60;47.80;;;;;;5026453;28;88579;-47
2022/05/10 00:36:10;;;;;;;;;;;17.60;47.80;;;;;;5026780;28;86994;-49
2022/05/10 00:38:38;;;;;;;;;;;17.60;47.90;;;;;;5029302;28;87824;-47
2022/05/10 00:41:27;;;;;;;;;;;17.50;47.90;;;;;;5027439;28;86117;-47
2022/05/10 00:44:04;;;;;;;;;;;17.50;47.90;;;;;;4987853;28;86989;-47
2022/05/10 00:46:31;;;;;;;;;;;17.50;48.00;;;;;;5026344;28;88667;-48
2022/05/10 00:49:00;;;;;;;;;;;17.50;47.90;;;;;;5025892;28;87837;-48
2022/05/10 00:51:43;;;;;;;;;;;17.40;47.80;;;;;;5026560;28;89213;-47
2022/05/10 00:54:29;;;;;;;;;;;17.40;47.90;;;;;;5026130;28;87602;-48
2022/05/10 00:56:57;;;;;;;;;;;17.40;48.00;;;;;;5025206;28;87401;-47
2022/05/10 00:59:28;;;;;;;;;;;17.40;48.00;;;;;;5026587;28;87927;-47
2022/05/10 01:01:57;;;;;;;;;;;17.40;48.10;;;;;;5029016;28;88600;-47
2022/05/10 01:04:26;;;;;;;;;;;17.30;48.00;;;;;;5026818;28;86834;-47
2022/05/10 01:07:03;;;;;;;;;;;17.40;48.00;;;;;;5026422;28;87868;-47
2022/05/10 01:09:41;;;;;;;;;;;17.30;48.00;;;;;;5025705;28;86947;-47
2022/05/10 01:12:36;;;;;;;;;;;17.30;48.10;;;;;;5026599;28;86954;-47
2022/05/10 01:15:15;;;;;;;;;;;17.30;48.20;;;;;;4997012;28;88416;-47
2022/05/10 01:17:41;;;;;;;;;;;17.20;48.00;;;;;;5026264;28;86899;-47
2022/05/10 01:20:08;;;;;;;;;;;17.20;48.10;;;;;;5026451;28;86914;-48
2022/05/10 01:22:34;;;;;;;;;;;17.20;48.20;;;;;;5025798;28;88783;-47
2022/05/10 01:25:02;;;;;;;;;;;17.20;48.10;;;;;;5029155;28;87140;-47
2022/05/10 01:27:46;;;;;;;;;;;17.20;48.20;;;;;;5025971;28;88090;-47
2022/05/10 01:30:15;;;;;;;;;;;17.10;48.20;;;;;;5026046;28;86957;-47
2022/05/10 01:35:35;;;;;;;;;;;17.10;48.20;;;;;;5025879;28;87141;-47
2022/05/10 01:38:07;;;;;;;;;;;17.10;48.20;;;;;;5025908;28;87026;-47
2022/05/10 01:40:36;;;;;;;;;;;17.10;48.20;;;;;;5025468;28;88142;-47
2022/05/10 01:43:08;;;;;;;;;;;17.00;48.20;;;;;;5025848;28;87174;-47
2022/05/10 01:45:40;;;;;;;;;;;17.10;48.30;;;;;;5026233;28;86841;-47
2022/05/10 01:48:07;;;;;;;;;;;17.00;48.20;;;;;;5028705;28;86893;-47
2022/05/10 01:50:33;;;;;;;;;;;17.00;48.30;;;;;;5026093;28;86893;-47
2022/05/10 01:53:08;;;;;;;;;;;16.90;48.30;;;;;;5025871;28;87103;-47
2022/05/10 01:55:36;;;;;;;;;;;16.90;48.20;;;;;;5025433;28;87629;-47
2022/05/10 01:58:22;;;;;;;;;;;16.90;48.30;;;;;;5025978;28;86029;-47
2022/05/10 02:00:55;;;;;;;;;;;16.90;48.30;;;;;;5025252;28;86948;-47
2022/05/10 02:03:27;;;;;;;;;;;16.90;48.40;;;;;;5025248;28;88485;-48
2022/05/10 02:06:06;;;;;;;;;;;16.90;48.40;;;;;;5025026;28;87903;-47
2022/05/10 02:08:51;;;;;;;;;;;16.80;48.20;;;;;;5027959;28;87985;-47
2022/05/10 02:11:17;;;;;;;;;;;16.80;48.30;;;;;;5025561;28;87136;-47
2022/05/10 02:14:03;;;;;;;;;;;16.80;48.40;;;;;;5025631;28;87922;-47
2022/05/10 02:16:41;;;;;;;;;;;16.80;48.30;;;;;;5024389;28;87373;-48
2022/05/10 02:19:28;;;;;;;;;;;16.80;48.40;;;;;;5026277;28;86780;-47
2022/05/10 02:21:55;;;;;;;;;;;16.70;48.40;;;;;;5028256;28;87526;-47
2022/05/10 02:24:23;;;;;;;;;;;16.70;48.40;;;;;;5029250;28;86057;-47
2022/05/10 02:26:50;;;;;;;;;;;16.70;48.40;;;;;;5028886;28;86970;-47
2022/05/10 02:29:30;;;;;;;;;;;16.70;48.40;;;;;;5028749;28;88036;-47
2022/05/10 02:34:48;;;;;;;;;;;16.70;48.40;;;;;;5029060;28;86854;-47
2022/05/10 02:37:15;;;;;;;;;;;16.60;48.30;;;;;;5028351;28;88914;-47
2022/05/10 02:39:41;;;;;;;;;;;16.60;48.30;;;;;;5028718;28;86852;-47
2022/05/10 02:42:09;;;;;;;;;;;16.60;48.50;;;;;;5028342;28;86880;-47
2022/05/10 02:44:38;;;;;;;;;;;16.60;48.50;;;;;;5028215;28;87694;-47
2022/05/10 02:47:05;;;;;;;;;;;16.50;48.40;;;;;;5028557;28;86949;-48
2022/05/10 02:49:31;;;;;;;;;;;16.50;48.40;;;;;;5029068;28;87978;-47
2022/05/10 02:51:56;;;;;;;;;;;16.50;48.50;;;;;;5028302;28;87569;-47
2022/05/10 02:54:22;;;;;;;;;;;16.40;48.40;;;;;;5031475;28;86906;-47
2022/05/10 02:56:47;;;;;;;;;;;16.50;48.50;;;;;;5027079;28;88651;-47
2022/05/10 02:59:24;;;;;;;;;;;16.40;48.40;;;;;;5028386;28;86973;-47
2022/05/10 03:02:09;;;;;;;;;;;16.40;48.40;;;;;;5028509;28;86881;-47
2022/05/10 03:04:41;;;;;;;;;;;16.40;48.50;;;;;;5027842;28;88658;-47
2022/05/10 03:07:08;;;;;;;;;;;16.30;48.50;;;;;;5027245;28;87029;-46
2022/05/10 03:09:33;;;;;;;;;;;16.30;48.50;;;;;;5028274;28;87401;-47
2022/05/10 03:12:01;;;;;;;;;;;16.30;48.50;;;;;;5028023;28;86825;-47
2022/05/10 03:14:27;;;;;;;;;;;16.30;48.50;;;;;;5028645;28;86102;-47
2022/05/10 03:16:53;;;;;;;;;;;16.30;48.50;;;;;;5031065;28;86870;-47
2022/05/10 03:19:18;;;;;;;;;;;16.30;48.70;;;;;;5028207;28;86819;-47
2022/05/10 03:21:44;;;;;;;;;;;16.30;48.60;;;;;;5027560;28;87866;-47
2022/05/10 03:24:10;;;;;;;;;;;16.20;48.50;;;;;;5028004;28;87439;-47
2022/05/10 03:26:36;;;;;;;;;;;16.20;48.60;;;;;;5028023;28;86929;-47
2022/05/10 03:29:03;;;;;;;;;;;16.20;48.60;;;;;;5027989;28;87320;-47
2022/05/10 03:31:29;;;;;;;;;;;16.20;48.60;;;;;;5027037;28;88650;-47
2022/05/10 03:36:39;;;;;;;;;;;16.10;48.60;;;;;;5025027;28;86834;-47
2022/05/10 03:39:05;;;;;;;;;;;16.10;48.70;;;;;;5030835;28;87352;-47
2022/05/10 03:41:31;;;;;;;;;;;16.10;48.70;;;;;;5028208;28;86819;-47
2022/05/10 03:43:57;;;;;;;;;;;16.10;48.70;;;;;;5026951;28;86866;-47
2022/05/10 03:46:23;;;;;;;;;;;16.00;48.70;;;;;;5026223;28;87875;-47
2022/05/10 03:48:50;;;;;;;;;;;16.10;48.80;;;;;;5027754;28;88340;-47
2022/05/10 03:51:16;;;;;;;;;;;16.00;48.80;;;;;;5027349;28;88670;-47
2022/05/10 03:53:41;;;;;;;;;;;16.00;48.80;;;;;;5027915;28;87245;-47
2022/05/10 03:56:07;;;;;;;;;;;16.00;48.80;;;;;;5027471;28;87045;-47
2022/05/10 03:58:33;;;;;;;;;;;15.90;48.70;;;;;;5027144;28;88989;-47
2022/05/10 04:00:59;;;;;;;;;;;15.90;48.80;;;;;;5030632;28;87076;-47
2022/05/10 04:03:24;;;;;;;;;;;15.90;48.80;;;;;;5027580;28;86956;-47
2022/05/10 04:05:50;;;;;;;;;;;15.90;48.80;;;;;;5027683;28;86991;-47
2022/05/10 04:08:15;;;;;;;;;;;15.90;48.70;;;;;;5027530;28;86935;-47
2022/05/10 04:10:42;;;;;;;;;;;15.90;48.80;;;;;;5026234;28;89735;-47
2022/05/10 04:13:09;;;;;;;;;;;15.90;48.80;;;;;;5027281;28;87072;-47
2022/05/10 04:15:36;;;;;;;;;;;15.90;48.80;;;;;;5027373;28;88006;-47
2022/05/10 04:18:02;;;;;;;;;;;15.90;48.80;;;;;;5027116;28;87993;-47
2022/05/10 04:20:27;;;;;;;;;;;15.80;48.80;;;;;;5030115;28;86918;-48
2022/05/10 04:22:53;;;;;;;;;;;15.80;48.90;;;;;;5026691;28;88856;-47
2022/05/10 04:25:23;;;;;;;;;;;15.80;48.90;;;;;;5027381;28;86831;-47
2022/05/10 04:27:50;;;;;;;;;;;15.70;48.90;;;;;;5027528;28;87008;-47
2022/05/10 04:30:16;;;;;;;;;;;15.80;49.00;;;;;;5026666;28;88445;-47
2022/05/10 04:32:42;;;;;;;;;;;15.80;48.90;;;;;;5027018;28;86930;-47
2022/05/10 04:35:09;;;;;;;;;;;15.70;48.90;;;;;;5026403;28;87866;-47
2022/05/10 04:37:34;;;;;;;;;;;15.70;48.90;;;;;;5026518;28;88705;-47
2022/05/10 04:42:44;;;;;;;;;;;15.70;49.00;;;;;;5028580;28;86869;-47
2022/05/10 04:45:10;;;;;;;;;;;15.70;49.00;;;;;;5027222;28;86875;-47
2022/05/10 04:47:36;;;;;;;;;;;15.70;49.00;;;;;;5026599;28;87531;-47
2022/05/10 04:50:02;;;;;;;;;;;15.70;49.00;;;;;;5026334;28;88545;-47
2022/05/10 04:52:27;;;;;;;;;;;15.60;49.00;;;;;;5027198;28;86076;-47
2022/05/10 04:54:53;;;;;;;;;;;15.70;49.00;;;;;;5026719;28;87903;-47
2022/05/10 04:57:19;;;;;;;;;;;15.60;49.00;;;;;;5025706;28;88583;-47
2022/05/10 04:59:44;;;;;;;;;;;15.60;49.20;;;;;;5026240;28;87787;-47
2022/05/10 05:02:10;;;;;;;;;;;15.60;49.20;;;;;;5026528;28;89161;-47
2022/05/10 05:04:35;;;;;;;;;;;15.60;49.20;;;;;;5028942;28;87768;-47
2022/05/10 05:07:02;;;;;;;;;;;15.60;49.10;;;;;;5026474;28;87873;-46
2022/05/10 05:09:27;;;;;;;;;;;15.60;49.10;;;;;;5025926;28;88520;-47
2022/05/10 05:11:53;;;;;;;;;;;15.60;49.10;;;;;;5026767;28;86859;-47
2022/05/10 05:14:19;;;;;;;;;;;15.60;49.10;;;;;;5026396;28;88084;-47
2022/05/10 05:16:44;;;;;;;;;;;15.60;49.20;;;;;;5026575;28;87677;-47
2022/05/10 05:19:10;;;;;;;;;;;15.60;49.20;;;;;;5026317;28;86963;-47
2022/05/10 05:21:36;;;;;;;;;;;15.60;49.20;;;;;;5026304;28;87793;-47
2022/05/10 05:24:01;;;;;;;;;;;15.60;49.20;;;;;;5025233;28;88638;-47
2022/05/10 05:26:27;;;;;;;;;;;15.60;49.20;;;;;;5029123;28;86826;-47
2022/05/10 05:28:53;;;;;;;;;;;15.60;49.20;;;;;;5025384;28;87736;-47
2022/05/10 05:31:19;;;;;;;;;;;15.60;49.30;;;;;;5026068;28;87111;-47
2022/05/10 05:33:45;;;;;;;;;;;15.60;49.40;;;;;;5025790;28;86990;-47
2022/05/10 05:36:10;;;;;;;;;;;15.60;49.30;;;;;;5025184;28;88507;-47
2022/05/10 05:38:36;;;;;;;;;;;15.60;49.20;;;;;;5025885;28;86908;-48
2022/05/10 05:41:02;;;;;;;;;;;15.60;49.40;;;;;;5026328;28;86363;-47
2022/05/10 05:43:27;;;;;;;;;;;15.60;49.50;;;;;;5025327;28;88668;-47
2022/05/10 05:45:53;;;;;;;;;;;15.50;49.70;;;;;;5025510;28;86862;-47
2022/05/10 05:48:19;;;;;;;;;;;15.50;49.70;;;;;;5027233;28;88117;-47
2022/05/10 05:50:45;;;;;;;;;;;15.50;49.70;;;;;;5025806;28;86828;-47
2022/05/10 05:53:10;;;;;;;;;;;15.60;49.70;;;;;;5024789;28;86889;-47
2022/05/10 05:55:36;;;;;;;;;;;15.60;49.70;;;;;;5027943;28;87586;-49
2022/05/10 05:58:02;;;;;;;;;;;15.60;49.80;;;;;;5028831;28;86914;-47
2022/05/10 06:00:28;;;;;;;;;;;15.60;49.90;;;;;;5028880;28;88514;-47
2022/05/10 06:02:54;;;;;;;;;;;15.50;49.90;;;;;;5028241;28;86965;-46
2022/05/10 06:05:20;;;;;;;;;;;15.60;49.90;;;;;;5030143;28;86453;-47
2022/05/10 06:07:46;;;;;;;;;;;15.60;50.00;;;;;;5028814;28;86922;-47
2022/05/10 06:10:12;;;;;;;;;;;15.50;49.90;;;;;;5031473;28;87625;-47
2022/05/10 06:12:38;;;;;;;;;;;15.60;50.00;;;;;;5028090;28;87803;-47
2022/05/10 06:15:10;;;;;;;;;;;15.60;49.90;;;;;;5028410;28;88550;-47
2022/05/10 06:17:37;;;;;;;;;;;15.60;50.00;;;;;;5028611;28;86862;-47
2022/05/10 06:20:04;;;;;;;;;;;15.60;50.00;;;;;;5028584;28;87913;-48
2022/05/10 06:22:30;;;;;;;;;;;15.60;50.00;;;;;;5028188;28;88506;-48
2022/05/10 06:24:55;;;;;;;;;;;15.60;49.90;;;;;;5028718;28;86863;-47
2022/05/10 06:27:21;;;;;;;;;;;15.60;50.00;;;;;;5028701;28;87041;-47
2022/05/10 06:29:46;;;;;;;;;;;15.60;50.00;;;;;;5031633;28;86152;-47
2022/05/10 06:32:19;;;;;;;;;;;15.60;50.00;;;;;;5028459;28;87005;-47
2022/05/10 06:34:44;;;;;;;;;;;15.60;50.00;;;;;;5028247;28;88225;-47
2022/05/10 06:39:54;;;;;;;;;;;15.60;50.00;;;;;;5028491;28;87437;-47
2022/05/10 06:42:23;;;;;;;;;;;15.60;50.00;;;;;;5027661;28;87719;-47
2022/05/10 06:44:49;;;;;;;;;;;15.60;50.00;;;;;;5028243;28;86819;-48
2022/05/10 06:47:14;;;;;;;;;;;15.70;50.10;;;;;;5027997;28;87710;-48
2022/05/10 06:49:40;;;;;;;;;;;15.60;50.00;;;;;;5027725;28;88118;-47
2022/05/10 06:52:05;;;;;;;;;;;15.60;50.00;;;;;;5031144;28;86842;-47
2022/05/10 06:54:31;;;;;;;;;;;15.60;50.00;;;;;;5028076;28;87233;-47
2022/05/10 06:56:56;;;;;;;;;;;15.60;50.00;;;;;;5027736;28;86977;-47
2022/05/10 06:59:22;;;;;;;;;;;15.70;50.00;;;;;;5028293;28;86811;-47
2022/05/10 07:01:47;;;;;;;;;;;15.60;50.00;;;;;;5027067;28;88408;-49
2022/05/10 07:04:13;;;;;;;;;;;15.70;50.00;;;;;;5027876;28;86856;-47
2022/05/10 07:06:39;;;;;;;;;;;15.60;50.00;;;;;;5026870;28;88042;-47
2022/05/10 07:09:04;;;;;;;;;;;15.70;50.00;;;;;;5027327;28;88416;-47
2022/05/10 07:11:30;;;;;;;;;;;15.70;50.10;;;;;;5027713;28;86841;-47
2022/05/10 07:13:55;;;;;;;;;;;15.70;50.10;;;;;;5030523;28;86864;-47
2022/05/10 07:16:21;;;;;;;;;;;15.70;50.10;;;;;;5027784;28;87158;-48
2022/05/10 07:18:46;;;;;;;;;;;15.70;50.10;;;;;;5028094;28;88140;-47
2022/05/10 07:21:12;;;;;;;;;;;15.70;50.10;;;;;;5027302;28;88561;-47
2022/05/10 07:23:37;;;;;;;;;;;15.70;50.00;;;;;;5027742;28;86848;-47
2022/05/10 07:28:38;;;;;;;;;;;15.70;50.10;;;;;;5243314;22;89005;-47
2022/05/10 07:31:04;;;;;;;;;;;15.70;50.20;;;;;;4987952;28;86819;-47
2022/05/10 07:33:30;;;;;;;;;;;15.70;50.10;;;;;;4987810;28;88161;-46
2022/05/10 07:38:39;;;;;;;;;;;15.70;50.20;;;;;;4988096;28;86800;-47
2022/05/10 07:41:05;;;;;;;;;;;15.70;50.30;;;;;;4987294;28;88703;-47
2022/05/10 07:43:33;;;;;;;;;;;15.70;50.30;;;;;;4987794;28;86647;-47
2022/05/10 07:45:59;;;;;;;;;;;15.70;50.30;;;;;;4987166;28;87255;-47
2022/05/10 07:48:25;;;;;;;;;;;15.70;50.40;;;;;;4986764;28;88435;-47
2022/05/10 07:50:50;;;;;;;;;;;15.70;50.30;;;;;;4986741;28;88214;-47
2022/05/10 07:53:16;;;;;;;;;;;15.70;50.40;;;;;;4986978;28;88813;-47
2022/05/10 07:55:41;;;;;;;;;;;15.70;50.30;;;;;;4986942;28;87532;-47
2022/05/10 07:58:07;;;;;;;;;;;15.80;50.40;;;;;;4989975;28;86902;-47
2022/05/10 08:00:34;;;;;;;;;;;15.80;50.40;;;;;;4986705;28;87693;-47
2022/05/10 08:03:06;;;;;;;;;;;15.80;50.30;;;;;;4986846;28;86886;-47
2022/05/10 08:05:32;;;;;;;;;;;15.80;50.30;;;;;;4987336;28;87039;-47
2022/05/10 08:07:57;;;;;;;;;;;15.80;50.30;;;;;;4987300;28;86985;-48
2022/05/10 08:10:22;;;;;;;;;;;15.80;50.30;;;;;;4986931;28;86904;-46
2022/05/10 08:12:48;;;;;;;;;;;15.80;50.30;;;;;;4987018;28;86866;-47
2022/05/10 08:15:15;;;;;;;;;;;15.80;50.30;;;;;;4985729;28;88717;-47
2022/05/10 08:17:40;;;;;;;;;;;15.80;50.30;;;;;;4986663;28;87071;-47
2022/05/10 08:20:06;;;;;;;;;;;15.80;50.30;;;;;;4989228;28;88094;-47
2022/05/10 08:22:32;;;;;;;;;;;15.80;50.30;;;;;;4986974;28;86829;-46
2022/05/10 08:24:58;;;;;;;;;;;15.80;50.30;;;;;;4987353;28;86846;-47
2022/05/10 08:27:23;;;;;;;;;;;15.80;50.30;;;;;;4986452;28;87576;-47
2022/05/10 08:29:49;;;;;;;;;;;15.80;50.30;;;;;;4986973;28;86902;-47
2022/05/10 08:32:15;;;;;;;;;;;15.80;50.10;;;;;;4987568;28;88306;-47
2022/05/10 08:34:41;;;;;;;;;;;15.90;50.10;;;;;;4986696;28;87517;-47
2022/05/10 08:37:07;;;;;;;;;;;15.90;50.10;;;;;;4987024;28;87026;-47
2022/05/10 08:39:33;;;;;;;;;;;15.90;50.10;;;;;;4988827;28;88013;-47
2022/05/10 08:42:01;;;;;;;;;;;15.90;50.00;;;;;;4987253;28;86898;-47
2022/05/10 08:44:29;;;;;;;;;;;15.90;50.10;;;;;;4986837;28;87725;-47
2022/05/10 08:47:03;;;;;;;;;;;15.90;50.10;;;;;;4986605;28;88404;-47
2022/05/10 08:49:28;;;;;;;;;;;16.00;50.10;;;;;;4986720;28;87132;-47
2022/05/10 08:51:54;;;;;;;;;;;16.00;50.00;;;;;;4987152;28;86742;-47
2022/05/10 08:54:20;;;;;;;;;;;16.00;50.00;;;;;;4986369;28;88575;-48
2022/05/10 08:56:51;;;;;;;;;;;16.00;49.90;;;;;;4987214;28;86135;-47
2022/05/10 08:59:27;;;;;;;;;;;16.00;49.90;;;;;;4986929;28;86923;-47
2022/05/10 09:01:58;;;;;;;;;;;16.00;49.90;;;;;;4989271;28;87421;-47
2022/05/10 09:04:23;;;;;;;;;;;16.00;49.90;;;;;;4986387;28;87829;-47
2022/05/10 09:07:05;;;;;;;;;;;16.00;49.90;;;;;;4986247;28;87625;-47
2022/05/10 09:09:46;;;;;;;;;;;15.90;50.00;;;;;;4986584;28;86956;-47
2022/05/10 09:12:18;;;;;;;;;;;16.00;49.90;;;;;;4986663;28;87080;-47
2022/05/10 09:14:48;;;;;;;;;;;16.00;49.90;;;;;;4986047;28;88444;-47
2022/05/10 09:17:15;;;;;;;;;;;16.10;50.70;;;;;;4986411;28;86914;-47
2022/05/10 09:19:42;;;;;;;;;;;16.10;49.80;;;;;;4986507;28;88159;-47
2022/05/10 09:22:31;;;;;;;;;;;16.20;49.90;;;;;;4986858;28;86191;-47
2022/05/10 09:24:57;;;;;;;;;;;16.20;49.80;;;;;;4978367;28;87092;-47
2022/05/10 09:27:28;;;;;;;;;;;16.20;49.80;;;;;;4985679;28;88652;-47
2022/05/10 09:29:54;;;;;;;;;;;16.10;49.80;;;;;;4985159;28;88022;-51
2022/05/10 09:35:09;;;;;;;;;;;16.20;49.90;;;;;;4986174;28;87119;-47
2022/05/10 09:37:35;;;;;;;;;;;16.20;49.60;;;;;;4986286;28;86942;-47
2022/05/10 09:40:01;;;;;;;;;;;16.20;49.50;;;;;;4986229;28;87018;-47
2022/05/10 09:42:31;;;;;;;;;;;16.20;49.60;;;;;;4986141;28;87415;-47
2022/05/10 09:44:58;;;;;;;;;;;16.30;49.40;;;;;;4986090;28;86870;-47
2022/05/10 09:47:24;;;;;;;;;;;16.30;49.20;;;;;;4989132;28;88080;-47
2022/05/10 09:49:50;;;;;;;;;;;16.30;49.00;;;;;;4986090;28;87082;-47
2022/05/10 09:52:17;;;;;;;;;;;16.30;49.30;;;;;;4986190;28;87771;-47
2022/05/10 09:54:43;;;;;;;;;;;16.40;49.00;;;;;;4985040;28;89364;-47
2022/05/10 09:57:13;;;;;;;;;;;16.30;49.00;;;;;;4986328;28;86861;-47
2022/05/10 09:59:44;;;;;;;;;;;16.40;49.30;;;;;;4985952;28;87926;-47
2022/05/10 10:02:10;;;;;;;;;;;16.40;48.90;;;;;;4985534;28;88592;-47
2022/05/10 10:04:37;;;;;;;;;;;16.40;49.10;;;;;;4986308;28;86986;-47
2022/05/10 10:07:08;;;;;;;;;;;16.50;49.30;;;;;;4985965;28;87918;-47
2022/05/10 10:09:39;;;;;;;;;;;16.40;48.80;;;;;;4988257;28;88576;-47
2022/05/10 10:12:06;;;;;;;;;;;16.50;48.80;;;;;;4986437;28;87897;-47
2022/05/10 10:14:38;;;;;;;;;;;16.50;49.80;;;;;;4985448;28;88559;-47
2022/05/10 10:17:04;;;;;;;;;;;16.60;48.80;;;;;;4985826;28;86902;-47
2022/05/10 10:19:30;;;;;;;;;;;16.60;48.90;;;;;;4985473;28;88116;-48
2022/05/10 10:22:16;;;;;;;;;;;16.60;48.80;;;;;;4985357;28;88801;-47
2022/05/10 10:25:00;;;;;;;;;;;16.60;48.90;;;;;;4985380;28;87062;-47
2022/05/10 10:27:34;;;;;;;;;;;16.70;48.40;;;;;;4985409;28;86790;-47
2022/05/10 10:30:06;;;;;;;;;;;16.70;49.10;;;;;;4984719;28;87631;-47
2022/05/10 10:32:52;;;;;;;;;;;16.70;48.90;;;;;;4988447;28;86811;-47
2022/05/10 10:35:18;;;;;;;;;;;16.70;48.70;;;;;;4984785;28;88625;-47
2022/05/10 10:37:49;;;;;;;;;;;16.70;48.70;;;;;;4986361;28;86127;-47
2022/05/10 10:40:15;;;;;;;;;;;16.70;48.80;;;;;;4985640;28;87344;-47
2022/05/10 10:42:57;;;;;;;;;;;16.80;48.80;;;;;;4988097;28;87371;-47
2022/05/10 10:45:34;;;;;;;;;;;16.80;48.40;;;;;;4988324;28;87923;-47
2022/05/10 10:48:07;;;;;;;;;;;16.80;48.50;;;;;;4988968;28;87071;-47
2022/05/10 10:50:35;;;;;;;;;;;16.80;48.60;;;;;;4988584;28;87606;-47
2022/05/10 10:53:01;;;;;;;;;;;16.80;48.30;;;;;;4991472;28;86862;-47
2022/05/10 10:55:50;;;;;;;;;;;16.90;48.20;;;;;;4988273;28;88437;-47
2022/05/10 10:58:23;;;;;;;;;;;16.90;48.20;;;;;;4948611;28;86952;-47
2022/05/10 11:00:54;;;;;;;;;;;16.90;47.90;;;;;;4988588;28;87807;-47
2022/05/10 11:03:33;;;;;;;;;;;16.90;47.40;;;;;;4988549;28;86805;-47
2022/05/10 11:06:17;;;;;;;;;;;16.90;47.90;;;;;;4988321;28;87061;-47
2022/05/10 11:08:43;;;;;;;;;;;17.00;47.60;;;;;;4988477;28;87094;-47
2022/05/10 11:11:27;;;;;;;;;;;17.00;48.10;;;;;;4987239;28;89784;-47
2022/05/10 11:14:05;;;;;;;;;;;17.00;48.30;;;;;;4988179;28;87032;-47
2022/05/10 11:16:34;;;;;;;;;;;17.10;48.20;;;;;;4991008;28;86846;-47
2022/05/10 11:19:08;;;;;;;;;;;17.10;48.00;;;;;;4988230;28;86853;-47
2022/05/10 11:21:52;;;;;;;;;;;17.10;47.10;;;;;;4988452;28;86769;-47
2022/05/10 11:24:33;;;;;;;;;;;17.10;47.50;;;;;;4987778;28;87663;-47
2022/05/10 11:27:10;;;;;;;;;;;17.10;47.20;;;;;;4987669;28;86959;-47
2022/05/10 11:29:40;;;;;;;;;;;17.10;47.30;;;;;;4988704;28;86187;-47
2022/05/10 11:32:15;;;;;;;;;;;17.20;47.50;;;;;;4987659;28;88957;-47
2022/05/10 11:34:47;;;;;;;;;;;17.20;47.70;;;;;;4987973;28;87020;-47
2022/05/10 11:37:17;;;;;;;;;;;17.30;47.70;;;;;;4987686;28;87757;-47
2022/05/10 11:40:04;;;;;;;;;;;17.30;47.50;;;;;;4990308;28;87672;-47
2022/05/10 11:42:37;;;;;;;;;;;17.30;47.50;;;;;;4987734;28;87829;-47
2022/05/10 11:45:21;;;;;;;;;;;17.30;47.30;;;;;;4987664;28;87443;-47
2022/05/10 11:47:53;;;;;;;;;;;17.40;47.50;;;;;;4987758;28;86957;-47
2022/05/10 11:53:47;;;;;;;;;;;17.40;47.90;;;;;;4926528;28;87147;-47
2022/05/10 11:56:14;;;;;;;;;;;17.40;47.20;;;;;;4988012;28;86022;-47
2022/05/10 11:58:40;;;;;;;;;;;17.50;46.50;;;;;;4987694;28;86907;-47
2022/05/10 12:01:13;;;;;;;;;;;17.50;46.20;;;;;;4987203;28;88598;-47
2022/05/10 12:03:39;;;;;;;;;;;17.50;47.10;;;;;;4989781;28;87843;-47
2022/05/10 12:06:23;;;;;;;;;;;17.50;46.60;;;;;;4987007;28;88512;-47
2022/05/10 12:08:56;;;;;;;;;;;17.50;47.00;;;;;;4987501;28;86882;-47
2022/05/10 12:11:27;;;;;;;;;;;17.60;47.10;;;;;;4987650;28;86859;-47
2022/05/10 12:22:14;;;;;;;;;;;17.70;46.10;;;;;;4984558;28;86557;-48
2022/05/10 12:24:44;;;;;;;;;;;17.70;46.80;;;;;;4987093;28;87220;-47
2022/05/10 12:27:12;;;;;;;;;;;17.70;46.70;;;;;;4989437;28;87862;-48
2022/05/10 12:29:38;;;;;;;;;;;17.70;46.10;;;;;;4986354;28;87803;-48
2022/05/10 12:32:09;;;;;;;;;;;17.70;46.10;;;;;;4987072;28;88890;-48
2022/05/10 12:34:44;;;;;;;;;;;17.80;46.10;;;;;;4986734;28;88522;-47
2022/05/10 12:37:22;;;;;;;;;;;17.80;46.40;;;;;;4987001;28;86805;-47
2022/05/10 12:40:14;;;;;;;;;;;17.80;46.30;;;;;;4987025;28;87885;-47
2022/05/10 12:42:39;;;;;;;;;;;17.90;46.10;;;;;;4986465;28;88748;-47
2022/05/10 12:45:18;;;;;;;;;;;17.90;46.20;;;;;;4987102;28;86981;-48
2022/05/10 12:47:52;;;;;;;;;;;17.90;45.80;;;;;;4990128;28;86108;-47
2022/05/10 12:50:24;;;;;;;;;;;17.90;45.90;;;;;;4986819;28;87122;-48
2022/05/10 12:52:49;;;;;;;;;;;18.00;45.90;;;;;;4987057;28;86891;-47
2022/05/10 12:55:25;;;;;;;;;;;17.90;45.30;;;;;;4985817;28;89540;-47
2022/05/10 12:58:00;;;;;;;;;;;17.90;45.70;;;;;;4986737;28;86919;-47
2022/05/10 13:00:28;;;;;;;;;;;18.00;45.40;;;;;;4986966;28;86786;-47
2022/05/10 13:03:00;;;;;;;;;;;18.00;45.60;;;;;;4986258;28;88696;-47
2022/05/10 13:05:40;;;;;;;;;;;18.10;45.90;;;;;;4985983;28;87002;-48
2022/05/10 13:08:21;;;;;;;;;;;18.10;46.10;;;;;;4986580;28;87664;-47
2022/05/10 13:10:47;;;;;;;;;;;18.10;46.10;;;;;;4989128;28;88508;-47
2022/05/10 13:13:20;;;;;;;;;;;18.10;45.90;;;;;;4987121;28;86965;-47
2022/05/10 13:15:48;;;;;;;;;;;18.20;45.70;;;;;;4986115;28;88458;-47
2022/05/10 13:18:20;;;;;;;;;;;18.20;46.30;;;;;;4986587;28;86817;-47
2022/05/10 13:20:53;;;;;;;;;;;18.20;46.00;;;;;;4985854;28;87964;-47
2022/05/10 13:23:19;;;;;;;;;;;18.20;45.30;;;;;;4985930;28;88845;-47
2022/05/10 13:25:46;;;;;;;;;;;18.20;44.80;;;;;;4986459;28;86782;-48
2022/05/10 13:28:14;;;;;;;;;;;18.20;45.00;;;;;;4985496;28;86825;-48
2022/05/10 13:30:42;;;;;;;;;;;18.30;45.60;;;;;;4985881;28;88547;-48
2022/05/10 13:33:11;;;;;;;;;;;18.30;44.70;;;;;;4989170;28;86949;-48
2022/05/10 13:35:38;;;;;;;;;;;18.40;45.20;;;;;;4986306;28;86846;-48
2022/05/10 13:38:05;;;;;;;;;;;18.40;44.90;;;;;;4986660;28;86077;-47
2022/05/10 13:40:43;;;;;;;;;;;18.40;44.80;;;;;;4986514;28;86835;-47
2022/05/10 13:43:16;;;;;;;;;;;18.40;45.20;;;;;;4985715;28;88565;-47
2022/05/10 13:45:43;;;;;;;;;;;18.50;45.50;;;;;;4985545;28;87861;-48
2022/05/10 13:48:13;;;;;;;;;;;18.50;44.80;;;;;;4986075;28;88019;-47
2022/05/10 13:50:40;;;;;;;;;;;18.60;44.20;;;;;;4985704;28;88566;-48
2022/05/10 13:53:07;;;;;;;;;;;18.60;44.20;;;;;;4986108;28;86890;-47
2022/05/10 13:55:35;;;;;;;;;;;18.60;44.90;;;;;;4988600;28;88095;-47
2022/05/10 13:58:02;;;;;;;;;;;18.60;44.50;;;;;;4986067;28;87060;-47
2022/05/10 14:00:31;;;;;;;;;;;18.60;44.60;;;;;;4985885;28;87942;-48
2022/05/10 14:02:57;;;;;;;;;;;18.70;44.90;;;;;;4986393;28;86730;-48
2022/05/10 14:05:24;;;;;;;;;;;18.70;45.40;;;;;;4986279;28;86903;-48
2022/05/10 14:08:17;;;;;;;;;;;18.70;44.80;;;;;;4985884;28;88063;-50
2022/05/10 14:10:45;;;;;;;;;;;18.60;45.00;;;;;;4981222;28;88558;-48
2022/05/10 14:13:18;;;;;;;;;;;18.60;45.20;;;;;;4985769;28;87112;-47
2022/05/10 14:15:45;;;;;;;;;;;18.60;45.70;;;;;;4987286;28;87099;-48
2022/05/10 14:18:23;;;;;;;;;;;18.60;45.60;;;;;;4991892;28;87500;-48
2022/05/10 14:20:51;;;;;;;;;;;18.70;45.70;;;;;;4989204;28;87789;-48
2022/05/10 14:23:18;;;;;;;;;;;18.70;46.00;;;;;;4988677;28;88361;-47
2022/05/10 14:25:52;;;;;;;;;;;18.70;45.80;;;;;;4989381;28;86988;-48
2022/05/10 14:28:38;;;;;;;;;;;18.70;46.10;;;;;;4989283;28;87966;-50
2022/05/10 14:31:18;;;;;;;;;;;18.70;45.70;;;;;;4988625;28;87707;-48
2022/05/10 14:33:45;;;;;;;;;;;18.70;45.70;;;;;;4989205;28;86855;-47
2022/05/10 14:36:21;;;;;;;;;;;18.70;45.90;;;;;;4988416;28;88043;-48
2022/05/10 14:38:47;;;;;;;;;;;18.80;45.90;;;;;;4988447;28;87739;-48
2022/05/10 14:41:26;;;;;;;;;;;18.80;45.70;;;;;;4991374;28;86995;-47
2022/05/10 14:43:51;;;;;;;;;;;18.90;45.50;;;;;;4988650;28;86964;-48
2022/05/10 14:46:31;;;;;;;;;;;18.90;45.50;;;;;;4988740;28;86818;-48
2022/05/10 14:49:01;;;;;;;;;;;18.90;45.60;;;;;;4988786;28;87740;-48
2022/05/10 14:51:32;;;;;;;;;;;18.90;45.90;;;;;;4988173;28;88469;-48
2022/05/10 14:53:58;;;;;;;;;;;18.90;45.70;;;;;;4989028;28;86193;-48
2022/05/10 14:56:28;;;;;;;;;;;19.00;45.70;;;;;;4988423;28;87014;-48
2022/05/10 14:58:54;;;;;;;;;;;19.00;46.00;;;;;;4987679;28;88694;-47
2022/05/10 15:01:25;;;;;;;;;;;19.00;45.80;;;;;;4990301;28;87829;-48
2022/05/10 15:04:05;;;;;;;;;;;19.10;46.00;;;;;;4987638;28;87545;-48